MLD101 LIPX-LUKK
Flight info
| Callsign | MLD101 |
|---|---|
| Flight time | N/A |
| Altitude | 35000 |
| Route | TUVD6C TUVDE Y922 KOPER AKADO BADOP BARPI ZARVE VANAX KOPRY BUDOP BUSES BUSE1L |
| Aircraft | T154/M-G/L |
Departure
| Time | 2026-04-23 09:21 |
|---|---|
| Airport | Verona Villafranca Valerio Catullo Airport (LIPX) |
Arrival
| Time | N/A |
|---|---|
| Airport | Chişinău International Airport (LUKK) |
| Time | Latitude | Longitude | Altitude | Speed | Heading |
|---|---|---|---|---|---|
| 2026-04-23 07:26 | 45.40259 | 10.90277 | 247 ft | 0 kts | 225° |
| 2026-04-23 09:17 | 45.40263 | 10.90282 | 247 ft | 2 kts | 225° |
| 2026-04-23 09:17 | 45.40274 | 10.90298 | 247 ft | 3 kts | 225° |
| 2026-04-23 09:17 | 45.40284 | 10.90312 | 247 ft | 0 kts | 225° |
| 2026-04-23 09:17 | 45.40278 | 10.90297 | 247 ft | 1 kts | 271° |
| 2026-04-23 09:18 | 45.40284 | 10.90279 | 247 ft | 7 kts | 300° |
| 2026-04-23 09:18 | 45.40291 | 10.90241 | 248 ft | 8 kts | 285° |
| 2026-04-23 09:18 | 45.40301 | 10.90163 | 248 ft | 16 kts | 276° |
| 2026-04-23 09:18 | 45.40307 | 10.90014 | 247 ft | 11 kts | 271° |
| 2026-04-23 09:19 | 45.40307 | 10.89986 | 247 ft | 10 kts | 275° |
| 2026-04-23 09:19 | 45.40309 | 10.89953 | 247 ft | 5 kts | 275° |
| 2026-04-23 09:19 | 45.40304 | 10.89917 | 247 ft | 0 kts | 232° |
| 2026-04-23 09:20 | 45.40170 | 10.89710 | 247 ft | 71 kts | 225° |
| 2026-04-23 09:20 | 45.39620 | 10.88930 | 247 ft | 149 kts | 225° |
| 2026-04-23 09:20 | 45.38767 | 10.87703 | 354 ft | 197 kts | 225° |
| 2026-04-23 09:21 | 45.37783 | 10.86384 | 1655 ft | 191 kts | 220° |
| 2026-04-23 09:21 | 45.36600 | 10.85471 | 2706 ft | 200 kts | 195° |
| 2026-04-23 09:21 | 45.35175 | 10.85628 | 3434 ft | 218 kts | 160° |
| 2026-04-23 09:21 | 45.33988 | 10.87058 | 4256 ft | 235 kts | 122° |
| 2026-04-23 09:22 | 45.33575 | 10.89339 | 5374 ft | 247 kts | 86° |
| 2026-04-23 09:22 | 45.34097 | 10.91792 | 5999 ft | 282 kts | 62° |
| 2026-04-23 09:22 | 45.34926 | 10.94165 | 5713 ft | 300 kts | 62° |
| 2026-04-23 09:22 | 45.35251 | 10.95142 | 5612 ft | 299 kts | 63° |
| 2026-04-23 09:23 | 45.36035 | 10.97565 | 5361 ft | 293 kts | 63° |
| 2026-04-23 09:23 | 45.36861 | 11.00165 | 5085 ft | 285 kts | 64° |
| 2026-04-23 09:23 | 45.37789 | 11.03413 | 4802 ft | 275 kts | 70° |
| 2026-04-23 09:23 | 45.38330 | 11.05968 | 4762 ft | 264 kts | 72° |
| 2026-04-23 09:24 | 45.38655 | 11.07661 | 4831 ft | 259 kts | 73° |
| 2026-04-23 09:24 | 45.39106 | 11.10104 | 5076 ft | 260 kts | 73° |
| 2026-04-23 09:24 | 45.39573 | 11.12596 | 5487 ft | 262 kts | 73° |
| 2026-04-23 09:24 | 45.40053 | 11.15132 | 5961 ft | 268 kts | 73° |
| 2026-04-23 09:25 | 45.40538 | 11.17721 | 6437 ft | 274 kts | 73° |
| 2026-04-23 09:25 | 45.41031 | 11.20369 | 6916 ft | 279 kts | 74° |
| 2026-04-23 09:25 | 45.41537 | 11.23063 | 7395 ft | 284 kts | 74° |
| 2026-04-23 09:25 | 45.42053 | 11.25801 | 7874 ft | 288 kts | 74° |
| 2026-04-23 09:26 | 45.42575 | 11.28564 | 8351 ft | 291 kts | 74° |
| 2026-04-23 09:26 | 45.43101 | 11.31357 | 8828 ft | 294 kts | 74° |
| 2026-04-23 09:26 | 45.43634 | 11.34180 | 9305 ft | 296 kts | 74° |
| 2026-04-23 09:26 | 45.44169 | 11.37025 | 9789 ft | 298 kts | 73° |
| 2026-04-23 09:27 | 45.44712 | 11.39895 | 10263 ft | 301 kts | 74° |
| 2026-04-23 09:27 | 45.45254 | 11.42766 | 10736 ft | 307 kts | 74° |
| 2026-04-23 09:27 | 45.45812 | 11.45736 | 11216 ft | 312 kts | 74° |
| 2026-04-23 09:27 | 45.46362 | 11.48753 | 11695 ft | 316 kts | 75° |
| 2026-04-23 09:28 | 45.46905 | 11.51800 | 12172 ft | 319 kts | 75° |
| 2026-04-23 09:28 | 45.47450 | 11.54880 | 12649 ft | 322 kts | 75° |
| 2026-04-23 09:28 | 45.47999 | 11.57999 | 13128 ft | 324 kts | 75° |
| 2026-04-23 09:28 | 45.48549 | 11.61125 | 13604 ft | 327 kts | 75° |
| 2026-04-23 09:29 | 45.49097 | 11.64242 | 14075 ft | 329 kts | 75° |
| 2026-04-23 09:29 | 45.49654 | 11.67419 | 14552 ft | 332 kts | 75° |
| 2026-04-23 09:29 | 45.50217 | 11.70625 | 15029 ft | 334 kts | 75° |
| 2026-04-23 09:29 | 45.50783 | 11.73853 | 15506 ft | 337 kts | 75° |
| 2026-04-23 09:30 | 45.51355 | 11.77119 | 15985 ft | 339 kts | 75° |
| 2026-04-23 09:30 | 45.51928 | 11.80391 | 16462 ft | 341 kts | 75° |
| 2026-04-23 09:30 | 45.52505 | 11.83688 | 16938 ft | 344 kts | 75° |
| 2026-04-23 09:30 | 45.53086 | 11.87013 | 17416 ft | 346 kts | 75° |
| 2026-04-23 09:31 | 45.53662 | 11.90312 | 17886 ft | 348 kts | 75° |
| 2026-04-23 09:31 | 45.54250 | 11.93677 | 18362 ft | 351 kts | 75° |
| 2026-04-23 09:31 | 45.54843 | 11.97073 | 18840 ft | 354 kts | 75° |
| 2026-04-23 09:31 | 45.55440 | 12.00502 | 19318 ft | 356 kts | 75° |
| 2026-04-23 09:32 | 45.56040 | 12.03941 | 19794 ft | 359 kts | 75° |
| 2026-04-23 09:32 | 45.56645 | 12.07414 | 20271 ft | 361 kts | 75° |
| 2026-04-23 09:32 | 45.57254 | 12.10911 | 20733 ft | 364 kts | 75° |
| 2026-04-23 09:32 | 45.57860 | 12.14390 | 21180 ft | 367 kts | 75° |
| 2026-04-23 09:33 | 45.58478 | 12.17944 | 21631 ft | 370 kts | 75° |
| 2026-04-23 09:33 | 45.59101 | 12.21520 | 22064 ft | 372 kts | 75° |
| 2026-04-23 09:33 | 45.59729 | 12.25129 | 22493 ft | 375 kts | 75° |
| 2026-04-23 09:33 | 45.60360 | 12.28754 | 22920 ft | 377 kts | 75° |
| 2026-04-23 09:34 | 45.60996 | 12.32410 | 23336 ft | 379 kts | 75° |
| 2026-04-23 09:34 | 45.61627 | 12.36036 | 23735 ft | 382 kts | 75° |
| 2026-04-23 09:34 | 45.62273 | 12.39748 | 24139 ft | 384 kts | 75° |
| 2026-04-23 09:34 | 45.62919 | 12.43463 | 24538 ft | 386 kts | 75° |
| 2026-04-23 09:35 | 45.63569 | 12.47203 | 24921 ft | 389 kts | 75° |
| 2026-04-23 09:35 | 45.64225 | 12.50978 | 25300 ft | 391 kts | 75° |
| 2026-04-23 09:35 | 45.64875 | 12.54718 | 25673 ft | 394 kts | 75° |
| 2026-04-23 09:35 | 45.65536 | 12.58527 | 26046 ft | 396 kts | 75° |
| 2026-04-23 09:36 | 45.66203 | 12.62369 | 26404 ft | 398 kts | 75° |
| 2026-04-23 09:36 | 45.66874 | 12.66234 | 26757 ft | 401 kts | 75° |
| 2026-04-23 09:36 | 45.67547 | 12.70109 | 27109 ft | 403 kts | 75° |
| 2026-04-23 09:36 | 45.68224 | 12.74012 | 27460 ft | 405 kts | 75° |
| 2026-04-23 09:37 | 45.68905 | 12.77937 | 27797 ft | 407 kts | 75° |
| 2026-04-23 09:37 | 45.69589 | 12.81885 | 28125 ft | 409 kts | 75° |
| 2026-04-23 09:37 | 45.70268 | 12.85802 | 28448 ft | 412 kts | 75° |
| 2026-04-23 09:37 | 45.70958 | 12.89787 | 28774 ft | 413 kts | 75° |
| 2026-04-23 09:38 | 45.71653 | 12.93798 | 29099 ft | 415 kts | 75° |
| 2026-04-23 09:38 | 45.72349 | 12.97824 | 29407 ft | 418 kts | 75° |
| 2026-04-23 09:38 | 45.73041 | 13.01874 | 29710 ft | 420 kts | 76° |
| 2026-04-23 09:38 | 45.73720 | 13.05963 | 30012 ft | 422 kts | 76° |
| 2026-04-23 09:39 | 45.74387 | 13.10054 | 30313 ft | 424 kts | 76° |
| 2026-04-23 09:39 | 45.75054 | 13.14179 | 30614 ft | 425 kts | 76° |
| 2026-04-23 09:39 | 45.75715 | 13.18280 | 30901 ft | 427 kts | 76° |
| 2026-04-23 09:39 | 45.76384 | 13.22443 | 31180 ft | 430 kts | 76° |
| 2026-04-23 09:40 | 45.77056 | 13.26627 | 31456 ft | 432 kts | 76° |
| 2026-04-23 09:40 | 45.77730 | 13.30833 | 31733 ft | 433 kts | 76° |
| 2026-04-23 09:40 | 45.78406 | 13.35051 | 32009 ft | 435 kts | 76° |
| 2026-04-23 09:40 | 45.79084 | 13.39285 | 32285 ft | 437 kts | 76° |
| 2026-04-23 09:41 | 45.79766 | 13.43546 | 32550 ft | 439 kts | 76° |
| 2026-04-23 09:41 | 45.80449 | 13.47817 | 32804 ft | 441 kts | 76° |
| 2026-04-23 09:41 | 45.81135 | 13.52112 | 33056 ft | 442 kts | 76° |
| 2026-04-23 09:41 | 45.81814 | 13.56360 | 33303 ft | 444 kts | 76° |
| 2026-04-23 09:42 | 45.82504 | 13.60683 | 33554 ft | 445 kts | 76° |
| 2026-04-23 09:42 | 45.83198 | 13.65030 | 33805 ft | 447 kts | 76° |
| 2026-04-23 09:42 | 45.83891 | 13.69382 | 34056 ft | 448 kts | 76° |
| 2026-04-23 09:42 | 45.84589 | 13.73763 | 34294 ft | 450 kts | 76° |
| 2026-04-23 09:43 | 45.85281 | 13.78108 | 34520 ft | 452 kts | 76° |
| 2026-04-23 09:43 | 45.85986 | 13.82538 | 34745 ft | 454 kts | 76° |
| 2026-04-23 09:43 | 45.86694 | 13.86984 | 34903 ft | 457 kts | 76° |
| 2026-04-23 09:44 | 45.88112 | 13.95907 | 34997 ft | 464 kts | 76° |
| 2026-04-23 09:44 | 45.89549 | 14.04962 | 35000 ft | 464 kts | 76° |
| 2026-04-23 09:45 | 45.90981 | 14.14000 | 35000 ft | 463 kts | 76° |
| 2026-04-23 09:45 | 45.92406 | 14.23010 | 35000 ft | 463 kts | 76° |
| 2026-04-23 09:46 | 45.93829 | 14.32022 | 35000 ft | 462 kts | 76° |
| 2026-04-23 09:46 | 45.95241 | 14.40983 | 35000 ft | 462 kts | 76° |
| 2026-04-23 09:47 | 45.96658 | 14.49991 | 35000 ft | 461 kts | 76° |
| 2026-04-23 09:47 | 45.98069 | 14.58982 | 35000 ft | 461 kts | 76° |
| 2026-04-23 09:48 | 45.99476 | 14.67982 | 35000 ft | 460 kts | 77° |
| 2026-04-23 09:48 | 46.00821 | 14.76937 | 35000 ft | 460 kts | 77° |
| 2026-04-23 09:49 | 46.02134 | 14.85955 | 35000 ft | 460 kts | 77° |
| 2026-04-23 09:49 | 46.03436 | 14.94991 | 35000 ft | 460 kts | 77° |
| 2026-04-23 09:50 | 46.04733 | 15.04022 | 35000 ft | 460 kts | 77° |
| 2026-04-23 09:50 | 46.06018 | 15.12991 | 35000 ft | 460 kts | 78° |
| 2026-04-23 09:51 | 46.07309 | 15.22018 | 35000 ft | 460 kts | 78° |
| 2026-04-23 09:51 | 46.08600 | 15.31063 | 35000 ft | 460 kts | 78° |
| 2026-04-23 09:52 | 46.09888 | 15.40107 | 35000 ft | 460 kts | 78° |
| 2026-04-23 09:52 | 46.11168 | 15.49104 | 35000 ft | 460 kts | 78° |
| 2026-04-23 09:53 | 46.12452 | 15.58148 | 35000 ft | 460 kts | 78° |
| 2026-04-23 09:53 | 46.13733 | 15.67194 | 35000 ft | 460 kts | 78° |
| 2026-04-23 09:54 | 46.15007 | 15.76199 | 35000 ft | 460 kts | 78° |
| 2026-04-23 09:54 | 46.16284 | 15.85246 | 35000 ft | 460 kts | 78° |
| 2026-04-23 09:55 | 46.17561 | 15.94309 | 35000 ft | 460 kts | 78° |
| 2026-04-23 09:55 | 46.18835 | 16.03371 | 35000 ft | 460 kts | 78° |
| 2026-04-23 09:56 | 46.20098 | 16.12364 | 35000 ft | 460 kts | 78° |
| 2026-04-23 09:56 | 46.21370 | 16.21447 | 35000 ft | 460 kts | 78° |
| 2026-04-23 09:57 | 46.22639 | 16.30518 | 35000 ft | 460 kts | 78° |
| 2026-04-23 09:57 | 46.23898 | 16.39540 | 35000 ft | 460 kts | 78° |
| 2026-04-23 09:58 | 46.25153 | 16.48616 | 35000 ft | 460 kts | 78° |
| 2026-04-23 09:58 | 46.26350 | 16.57726 | 35000 ft | 460 kts | 79° |
| 2026-04-23 09:59 | 46.27508 | 16.66778 | 35000 ft | 460 kts | 79° |
| 2026-04-23 09:59 | 46.28666 | 16.75904 | 35000 ft | 460 kts | 79° |
| 2026-04-23 10:00 | 46.29811 | 16.84961 | 35000 ft | 460 kts | 79° |
| 2026-04-23 10:00 | 46.30962 | 16.94081 | 35000 ft | 460 kts | 79° |
| 2026-04-23 10:01 | 46.32109 | 17.03197 | 35000 ft | 460 kts | 79° |
| 2026-04-23 10:01 | 46.33251 | 17.12285 | 35000 ft | 460 kts | 79° |
| 2026-04-23 10:02 | 46.34395 | 17.21409 | 35000 ft | 460 kts | 79° |
| 2026-04-23 10:02 | 46.35536 | 17.30531 | 35000 ft | 460 kts | 79° |
| 2026-04-23 10:03 | 46.36668 | 17.39602 | 35000 ft | 460 kts | 79° |
| 2026-04-23 10:03 | 46.37807 | 17.48738 | 35000 ft | 460 kts | 79° |
| 2026-04-23 10:04 | 46.38942 | 17.57867 | 35000 ft | 460 kts | 79° |
| 2026-04-23 10:04 | 46.40075 | 17.66998 | 35000 ft | 460 kts | 79° |
| 2026-04-23 10:05 | 46.41199 | 17.76075 | 35000 ft | 460 kts | 79° |
| 2026-04-23 10:05 | 46.42330 | 17.85229 | 35000 ft | 460 kts | 79° |
| 2026-04-23 10:06 | 46.43456 | 17.94359 | 35000 ft | 460 kts | 79° |
| 2026-04-23 10:06 | 46.44576 | 18.03456 | 35000 ft | 460 kts | 79° |
| 2026-04-23 10:07 | 46.45699 | 18.12605 | 35000 ft | 460 kts | 79° |
| 2026-04-23 10:07 | 46.46821 | 18.21755 | 35000 ft | 460 kts | 79° |
| 2026-04-23 10:08 | 46.47886 | 18.30853 | 35000 ft | 460 kts | 80° |
| 2026-04-23 10:08 | 46.48914 | 18.40029 | 35000 ft | 460 kts | 80° |
| 2026-04-23 10:09 | 46.50434 | 18.53806 | 35000 ft | 460 kts | 80° |
| 2026-04-23 10:09 | 46.51442 | 18.62987 | 35000 ft | 460 kts | 80° |
| 2026-04-23 10:10 | 46.52446 | 18.72161 | 35000 ft | 460 kts | 80° |
| 2026-04-23 10:10 | 46.53280 | 18.79800 | 35000 ft | 460 kts | 80° |
| 2026-04-23 10:11 | 46.54446 | 18.90497 | 35000 ft | 460 kts | 80° |
| 2026-04-23 10:11 | 46.55278 | 18.98139 | 35000 ft | 460 kts | 81° |
| 2026-04-23 10:12 | 46.56275 | 19.07325 | 35000 ft | 460 kts | 81° |
| 2026-04-23 10:12 | 46.57270 | 19.16518 | 35000 ft | 460 kts | 81° |
| 2026-04-23 10:13 | 46.58266 | 19.25728 | 35000 ft | 460 kts | 81° |
| 2026-04-23 10:13 | 46.59251 | 19.34863 | 35000 ft | 460 kts | 81° |
| 2026-04-23 10:14 | 46.60241 | 19.44073 | 35000 ft | 460 kts | 81° |
| 2026-04-23 10:14 | 46.61232 | 19.53301 | 35000 ft | 460 kts | 81° |
| 2026-04-23 10:15 | 46.62211 | 19.62439 | 35000 ft | 460 kts | 81° |
| 2026-04-23 10:15 | 46.63195 | 19.71653 | 35000 ft | 460 kts | 81° |
| 2026-04-23 10:16 | 46.64178 | 19.80865 | 35000 ft | 460 kts | 81° |
| 2026-04-23 10:16 | 46.65157 | 19.90083 | 35000 ft | 460 kts | 81° |
| 2026-04-23 10:17 | 46.66079 | 19.99315 | 35000 ft | 460 kts | 81° |
| 2026-04-23 10:17 | 46.66957 | 20.08492 | 35000 ft | 460 kts | 82° |
| 2026-04-23 10:18 | 46.67828 | 20.17722 | 35000 ft | 460 kts | 82° |
| 2026-04-23 10:18 | 46.68695 | 20.26954 | 35000 ft | 460 kts | 82° |
| 2026-04-23 10:19 | 46.69562 | 20.36222 | 35000 ft | 460 kts | 82° |
| 2026-04-23 10:19 | 46.70425 | 20.45461 | 35000 ft | 460 kts | 82° |
| 2026-04-23 10:20 | 46.71286 | 20.54709 | 35000 ft | 460 kts | 82° |
| 2026-04-23 10:20 | 46.72140 | 20.63904 | 35000 ft | 460 kts | 82° |
| 2026-04-23 10:21 | 46.72998 | 20.73174 | 35000 ft | 460 kts | 82° |
| 2026-04-23 10:21 | 46.73849 | 20.82377 | 35000 ft | 460 kts | 82° |
| 2026-04-23 10:22 | 46.74702 | 20.91636 | 35000 ft | 460 kts | 82° |
| 2026-04-23 10:22 | 46.75588 | 21.00906 | 35000 ft | 460 kts | 81° |
| 2026-04-23 10:23 | 46.76488 | 21.10164 | 35000 ft | 460 kts | 82° |
| 2026-04-23 10:23 | 46.77245 | 21.19380 | 35000 ft | 460 kts | 84° |
| 2026-04-23 10:24 | 46.77836 | 21.28678 | 35000 ft | 460 kts | 84° |
| 2026-04-23 10:24 | 46.78381 | 21.38008 | 35000 ft | 460 kts | 85° |
| 2026-04-23 10:25 | 46.78864 | 21.47335 | 35000 ft | 460 kts | 85° |
| 2026-04-23 10:25 | 46.79299 | 21.56677 | 35000 ft | 460 kts | 86° |
| 2026-04-23 10:26 | 46.79716 | 21.65942 | 35000 ft | 460 kts | 86° |
| 2026-04-23 10:26 | 46.80132 | 21.75292 | 35000 ft | 460 kts | 86° |
| 2026-04-23 10:27 | 46.80545 | 21.84639 | 35000 ft | 460 kts | 86° |
| 2026-04-23 10:27 | 46.80955 | 21.93972 | 35000 ft | 460 kts | 86° |
| 2026-04-23 10:28 | 46.81361 | 22.03255 | 35000 ft | 460 kts | 86° |
| 2026-04-23 10:28 | 46.81767 | 22.12587 | 35000 ft | 460 kts | 86° |
| 2026-04-23 10:29 | 46.82171 | 22.21926 | 35000 ft | 460 kts | 86° |
| 2026-04-23 10:29 | 46.82573 | 22.31265 | 35000 ft | 461 kts | 86° |
| 2026-04-23 10:30 | 46.82973 | 22.40598 | 35000 ft | 461 kts | 86° |
| 2026-04-23 10:30 | 46.83370 | 22.49896 | 35000 ft | 461 kts | 86° |
| 2026-04-23 10:31 | 46.83766 | 22.59246 | 35000 ft | 461 kts | 86° |
| 2026-04-23 10:31 | 46.84161 | 22.68594 | 35000 ft | 461 kts | 86° |
| 2026-04-23 10:32 | 46.84553 | 22.77933 | 35000 ft | 461 kts | 86° |
| 2026-04-23 10:32 | 46.84942 | 22.87222 | 35000 ft | 461 kts | 86° |
| 2026-04-23 10:33 | 46.85331 | 22.96573 | 35000 ft | 461 kts | 86° |
| 2026-04-23 10:33 | 46.85717 | 23.05912 | 35000 ft | 461 kts | 86° |
| 2026-04-23 10:34 | 46.86095 | 23.15266 | 35000 ft | 461 kts | 86° |
| 2026-04-23 10:34 | 46.86406 | 23.24573 | 35000 ft | 461 kts | 87° |
| 2026-04-23 10:35 | 46.86691 | 23.33930 | 35000 ft | 460 kts | 87° |
| 2026-04-23 10:35 | 46.86967 | 23.43278 | 35000 ft | 460 kts | 87° |
| 2026-04-23 10:36 | 46.87239 | 23.52644 | 35000 ft | 460 kts | 87° |
| 2026-04-23 10:36 | 46.87508 | 23.61955 | 35000 ft | 460 kts | 87° |
| 2026-04-23 10:37 | 46.87777 | 23.71329 | 35000 ft | 460 kts | 87° |
| 2026-04-23 10:37 | 46.88041 | 23.80632 | 35000 ft | 461 kts | 87° |
| 2026-04-23 10:38 | 46.88305 | 23.89991 | 35000 ft | 461 kts | 87° |
| 2026-04-23 10:38 | 46.88568 | 23.99354 | 35000 ft | 460 kts | 87° |
| 2026-04-23 10:39 | 46.88828 | 24.08728 | 35000 ft | 460 kts | 88° |
| 2026-04-23 10:39 | 46.89085 | 24.18027 | 35000 ft | 460 kts | 88° |
| 2026-04-23 10:40 | 46.89342 | 24.27391 | 35000 ft | 461 kts | 88° |
| 2026-04-23 10:40 | 46.89597 | 24.36764 | 35000 ft | 461 kts | 88° |
| 2026-04-23 10:41 | 46.89849 | 24.46131 | 35000 ft | 461 kts | 88° |
| 2026-04-23 10:41 | 46.90100 | 24.55493 | 35000 ft | 461 kts | 88° |
| 2026-04-23 10:42 | 46.90348 | 24.64797 | 35000 ft | 461 kts | 88° |
| 2026-04-23 10:42 | 46.90595 | 24.74168 | 35000 ft | 461 kts | 88° |
| 2026-04-23 10:43 | 46.90839 | 24.83549 | 35000 ft | 461 kts | 88° |
| 2026-04-23 10:43 | 46.91021 | 24.92851 | 35000 ft | 461 kts | 88° |
| 2026-04-23 10:44 | 46.91169 | 25.02234 | 35000 ft | 461 kts | 89° |
| 2026-04-23 10:44 | 46.91305 | 25.11609 | 35000 ft | 461 kts | 89° |
| 2026-04-23 10:45 | 46.91438 | 25.20978 | 35000 ft | 461 kts | 89° |
| 2026-04-23 10:45 | 46.91568 | 25.30303 | 35000 ft | 461 kts | 89° |
| 2026-04-23 10:46 | 46.91696 | 25.39672 | 35000 ft | 461 kts | 89° |
| 2026-04-23 10:46 | 46.91822 | 25.49056 | 35000 ft | 461 kts | 89° |
| 2026-04-23 10:47 | 46.91946 | 25.58433 | 35000 ft | 461 kts | 89° |
| 2026-04-23 10:47 | 46.92068 | 25.67752 | 35000 ft | 461 kts | 89° |
| 2026-04-23 10:48 | 46.92189 | 25.77150 | 34896 ft | 463 kts | 89° |
| 2026-04-23 10:48 | 46.92249 | 25.81870 | 34639 ft | 465 kts | 89° |
| 2026-04-23 10:48 | 46.92309 | 25.86604 | 34216 ft | 465 kts | 89° |
| 2026-04-23 10:49 | 46.92368 | 25.91279 | 33715 ft | 463 kts | 89° |
| 2026-04-23 10:49 | 46.92426 | 25.95979 | 33191 ft | 460 kts | 89° |
| 2026-04-23 10:49 | 46.92484 | 26.00643 | 32666 ft | 456 kts | 89° |
| 2026-04-23 10:49 | 46.92540 | 26.05277 | 32138 ft | 453 kts | 89° |
| 2026-04-23 10:50 | 46.92596 | 26.09866 | 31612 ft | 449 kts | 89° |
| 2026-04-23 10:50 | 46.92650 | 26.14425 | 31085 ft | 446 kts | 89° |
| 2026-04-23 10:50 | 46.92704 | 26.18891 | 30566 ft | 443 kts | 89° |
| 2026-04-23 10:50 | 46.92756 | 26.23375 | 30040 ft | 440 kts | 89° |
| 2026-04-23 10:51 | 46.92809 | 26.27836 | 29534 ft | 436 kts | 89° |
| 2026-04-23 10:51 | 46.92860 | 26.32238 | 29123 ft | 430 kts | 89° |
| 2026-04-23 10:51 | 46.92910 | 26.36607 | 28697 ft | 426 kts | 89° |
| 2026-04-23 10:51 | 46.92959 | 26.40926 | 28246 ft | 423 kts | 89° |
| 2026-04-23 10:52 | 46.93008 | 26.45222 | 27817 ft | 420 kts | 89° |
| 2026-04-23 10:52 | 46.93056 | 26.49494 | 27387 ft | 418 kts | 89° |
| 2026-04-23 10:52 | 46.93103 | 26.53735 | 26952 ft | 415 kts | 89° |
| 2026-04-23 10:52 | 46.93131 | 26.57897 | 26515 ft | 413 kts | 89° |
| 2026-04-23 10:53 | 46.93144 | 26.62079 | 26085 ft | 410 kts | 90° |
| 2026-04-23 10:53 | 46.93149 | 26.66253 | 25653 ft | 407 kts | 90° |
| 2026-04-23 10:53 | 46.93150 | 26.70387 | 25208 ft | 405 kts | 90° |
| 2026-04-23 10:53 | 46.93149 | 26.74500 | 24777 ft | 403 kts | 90° |
| 2026-04-23 10:54 | 46.93147 | 26.78591 | 24347 ft | 400 kts | 90° |
| 2026-04-23 10:54 | 46.93145 | 26.82657 | 23903 ft | 398 kts | 90° |
| 2026-04-23 10:54 | 46.93142 | 26.86692 | 23471 ft | 395 kts | 90° |
| 2026-04-23 10:54 | 46.93139 | 26.90654 | 23038 ft | 393 kts | 90° |
| 2026-04-23 10:55 | 46.93135 | 26.94643 | 22606 ft | 390 kts | 90° |
| 2026-04-23 10:55 | 46.93131 | 26.98597 | 22167 ft | 388 kts | 90° |
| 2026-04-23 10:55 | 46.93127 | 27.02534 | 21734 ft | 385 kts | 90° |
| 2026-04-23 10:55 | 46.93122 | 27.06449 | 21295 ft | 383 kts | 90° |
| 2026-04-23 10:56 | 46.93117 | 27.10335 | 20862 ft | 380 kts | 90° |
| 2026-04-23 10:56 | 46.93112 | 27.14196 | 20428 ft | 378 kts | 90° |
| 2026-04-23 10:56 | 46.93107 | 27.18030 | 19988 ft | 375 kts | 90° |
| 2026-04-23 10:56 | 46.93101 | 27.21791 | 19561 ft | 373 kts | 90° |
| 2026-04-23 10:57 | 46.93095 | 27.25578 | 19127 ft | 371 kts | 90° |
| 2026-04-23 10:57 | 46.93089 | 27.29338 | 18692 ft | 368 kts | 90° |
| 2026-04-23 10:57 | 46.93083 | 27.33079 | 18259 ft | 366 kts | 90° |
| 2026-04-23 10:57 | 46.93076 | 27.36796 | 17820 ft | 364 kts | 90° |
| 2026-04-23 10:58 | 46.93073 | 27.40490 | 17387 ft | 361 kts | 90° |
| 2026-04-23 10:58 | 46.93075 | 27.44164 | 16951 ft | 359 kts | 90° |
| 2026-04-23 10:58 | 46.93071 | 27.47752 | 16529 ft | 356 kts | 90° |
| 2026-04-23 10:58 | 46.93065 | 27.51374 | 16105 ft | 354 kts | 90° |
| 2026-04-23 10:59 | 46.93057 | 27.54970 | 15690 ft | 351 kts | 90° |
| 2026-04-23 10:59 | 46.93050 | 27.58527 | 15285 ft | 348 kts | 90° |
| 2026-04-23 10:59 | 46.93045 | 27.62061 | 14884 ft | 346 kts | 90° |
| 2026-04-23 10:59 | 46.93044 | 27.64382 | 14621 ft | 344 kts | 90° |
| 2026-04-23 11:00 | 46.93038 | 27.67879 | 14231 ft | 342 kts | 90° |
| 2026-04-23 11:00 | 46.93030 | 27.71353 | 13848 ft | 340 kts | 90° |
| 2026-04-23 11:00 | 46.93021 | 27.75918 | 13348 ft | 337 kts | 90° |
| 2026-04-23 11:00 | 46.93017 | 27.78200 | 13097 ft | 336 kts | 90° |
| 2026-04-23 11:01 | 46.93010 | 27.81611 | 12726 ft | 334 kts | 90° |
| 2026-04-23 11:01 | 46.93007 | 27.85013 | 12361 ft | 332 kts | 90° |
| 2026-04-23 11:01 | 46.92999 | 27.88395 | 12003 ft | 331 kts | 90° |
| 2026-04-23 11:01 | 46.92990 | 27.91754 | 11649 ft | 329 kts | 90° |
| 2026-04-23 11:02 | 46.92982 | 27.95095 | 11305 ft | 327 kts | 90° |
| 2026-04-23 11:02 | 46.92979 | 27.98405 | 10974 ft | 323 kts | 90° |
| 2026-04-23 11:02 | 46.92972 | 28.01632 | 10651 ft | 319 kts | 90° |
| 2026-04-23 11:02 | 46.92963 | 28.04861 | 10321 ft | 315 kts | 90° |
| 2026-04-23 11:03 | 46.92953 | 28.08052 | 9994 ft | 312 kts | 90° |
| 2026-04-23 11:03 | 46.92941 | 28.11202 | 9784 ft | 306 kts | 90° |
| 2026-04-23 11:03 | 46.92912 | 28.14337 | 9365 ft | 309 kts | 91° |
| 2026-04-23 11:03 | 46.92872 | 28.17480 | 9030 ft | 306 kts | 91° |
| 2026-04-23 11:04 | 46.92829 | 28.20542 | 8709 ft | 304 kts | 91° |
| 2026-04-23 11:04 | 46.92784 | 28.23635 | 8382 ft | 302 kts | 91° |
| 2026-04-23 11:04 | 46.92739 | 28.26706 | 8052 ft | 300 kts | 91° |
| 2026-04-23 11:04 | 46.92694 | 28.29731 | 7727 ft | 296 kts | 91° |
| 2026-04-23 11:05 | 46.92650 | 28.32732 | 7402 ft | 292 kts | 91° |
| 2026-04-23 11:05 | 46.92604 | 28.35645 | 7080 ft | 288 kts | 91° |
| 2026-04-23 11:05 | 46.92541 | 28.38557 | 6760 ft | 283 kts | 92° |
| 2026-04-23 11:05 | 46.92483 | 28.41408 | 6444 ft | 278 kts | 91° |
| 2026-04-23 11:06 | 46.92379 | 28.46966 | 5874 ft | 267 kts | 91° |
| 2026-04-23 11:06 | 46.92320 | 28.49658 | 5598 ft | 262 kts | 91° |
| 2026-04-23 11:06 | 46.92266 | 28.52295 | 5322 ft | 258 kts | 90° |
| 2026-04-23 11:07 | 46.92218 | 28.54864 | 5048 ft | 253 kts | 90° |
| 2026-04-23 11:07 | 46.92169 | 28.57418 | 4771 ft | 248 kts | 90° |
| 2026-04-23 11:07 | 46.92115 | 28.59926 | 4506 ft | 243 kts | 90° |
| 2026-04-23 11:07 | 46.92084 | 28.62363 | 4282 ft | 238 kts | 88° |
| 2026-04-23 11:08 | 46.92109 | 28.64785 | 3955 ft | 237 kts | 87° |
| 2026-04-23 11:08 | 46.92152 | 28.67182 | 3670 ft | 234 kts | 86° |
| 2026-04-23 11:08 | 46.92199 | 28.69520 | 3396 ft | 231 kts | 86° |
| 2026-04-23 11:08 | 46.92235 | 28.71861 | 3109 ft | 228 kts | 87° |
| 2026-04-23 11:09 | 46.92261 | 28.74179 | 2820 ft | 226 kts | 87° |
| 2026-04-23 11:09 | 46.92304 | 28.76445 | 2607 ft | 221 kts | 86° |
| 2026-04-23 11:09 | 46.92373 | 28.78689 | 2278 ft | 221 kts | 85° |
| 2026-04-23 11:09 | 46.92450 | 28.80918 | 1957 ft | 221 kts | 86° |
| 2026-04-23 11:10 | 46.92518 | 28.83166 | 1632 ft | 221 kts | 86° |
| 2026-04-23 11:10 | 46.92586 | 28.85410 | 1324 ft | 220 kts | 86° |
| 2026-04-23 11:10 | 46.92646 | 28.87646 | 1024 ft | 219 kts | 88° |
| 2026-04-23 11:10 | 46.92704 | 28.89869 | 737 ft | 219 kts | 88° |
| 2026-04-23 11:11 | 46.92741 | 28.92122 | 329 ft | 219 kts | 88° |
| 2026-04-23 11:11 | 46.92777 | 28.93637 | 329 ft | 66 kts | 87° |